Time;durP1;ratioP1;P1;durP2;ratioP2;P2;SDS_P1;SDS_P2;PMS_P1;PMS_P2;Temp;Humidity;BMP_temperature;BMP_pressure;BME280_temperature;BME280_humidity;BME280_pressure;Samples;Min_cycle;Max_cycle;Signal;HPM_P1;HPM_P2
2021/12/29 00:01:58;;;;;;;8.38;3.28;;;;;;;;;;5096680;28;20167;-40
2021/12/29 00:04:25;;;;;;;7.57;3.42;;;;;;;;;;5087662;28;20032;-40
2021/12/29 00:06:51;;;;;;;7.68;2.85;;;;;;;;;;5096107;28;20015;-42
2021/12/29 00:09:17;;;;;;;7.18;3.10;;;;;;;;;;5076492;28;20028;-40
2021/12/29 00:11:43;;;;;;;6.65;3.25;;;;;;;;;;5083883;28;20031;-41
2021/12/29 00:14:10;;;;;;;12.38;3.75;;;;;;;;;;5094145;28;20481;-32
2021/12/29 00:16:36;;;;;;;15.20;3.40;;;;;;;;;;5090786;28;20026;-32
2021/12/29 00:19:05;;;;;;;6.60;2.70;;;;;;;;;;5096245;28;20588;-32
2021/12/29 00:21:33;;;;;;;9.00;2.93;;;;;;;;;;5089015;28;20558;-32
2021/12/29 00:23:59;;;;;;;9.13;3.00;;;;;;;;;;5097560;28;20386;-32
2021/12/29 00:26:26;;;;;;;7.13;2.53;;;;;;;;;;5088289;28;20102;-43
2021/12/29 00:28:53;;;;;;;10.75;2.97;;;;;;;;;;5097780;28;20042;-40
2021/12/29 00:31:19;;;;;;;7.10;2.65;;;;;;;;;;5087150;28;20130;-36
2021/12/29 00:33:45;;;;;;;6.85;2.88;;;;;;;;;;5097348;28;20089;-38
2021/12/29 00:36:11;;;;;;;7.15;2.42;;;;;;;;;;5111418;28;20031;-41
2021/12/29 00:38:37;;;;;;;8.43;2.25;;;;;;;;;;5098472;28;20012;-40
2021/12/29 00:41:03;;;;;;;6.38;2.67;;;;;;;;;;5111299;28;20134;-42
2021/12/29 00:43:29;;;;;;;6.85;2.80;;;;;;;;;;5099080;28;20031;-42
2021/12/29 00:45:56;;;;;;;7.18;2.58;;;;;;;;;;5090614;28;20119;-43
2021/12/29 00:48:28;;;;;;;6.95;2.40;;;;;;;;;;5096230;28;20043;-42
2021/12/29 00:50:54;;;;;;;8.77;2.40;;;;;;;;;;5109638;28;20038;-39
2021/12/29 00:53:21;;;;;;;6.07;2.25;;;;;;;;;;5106789;28;20020;-43
2021/12/29 00:55:46;;;;;;;7.00;2.53;;;;;;;;;;5108455;28;20454;-41
2021/12/29 00:58:13;;;;;;;8.60;2.15;;;;;;;;;;5105980;28;20103;-42
2021/12/29 01:00:40;;;;;;;4.95;2.10;;;;;;;;;;5103164;28;20038;-40
2021/12/29 01:03:08;;;;;;;5.97;2.53;;;;;;;;;;5107924;28;20070;-40
2021/12/29 01:05:34;;;;;;;7.63;2.70;;;;;;;;;;5102396;28;20019;-41
2021/12/29 01:08:00;;;;;;;5.50;2.13;;;;;;;;;;5109682;28;20030;-40
2021/12/29 01:10:26;;;;;;;6.45;2.25;;;;;;;;;;5099609;28;20020;-35
2021/12/29 01:12:56;;;;;;;5.50;2.15;;;;;;;;;;5109139;28;20123;-39
2021/12/29 01:15:28;;;;;;;5.78;2.05;;;;;;;;;;5091085;28;20040;-39
2021/12/29 01:17:55;;;;;;;7.47;2.22;;;;;;;;;;5109791;28;20338;-39
2021/12/29 01:20:21;;;;;;;4.60;2.00;;;;;;;;;;5099580;28;20047;-38
2021/12/29 01:22:48;;;;;;;6.43;1.85;;;;;;;;;;5110707;28;20036;-40
2021/12/29 01:25:14;;;;;;;6.40;2.20;;;;;;;;;;5097824;28;20032;-41
2021/12/29 01:27:40;;;;;;;7.15;2.47;;;;;;;;;;5090327;28;20059;-40
2021/12/29 01:30:09;;;;;;;6.10;2.25;;;19.00;73.10;;;;;;5103064;28;20055;-43
2021/12/29 01:32:35;;;;;;;10.43;3.03;;;19.10;73.80;;;;;;5090874;28;20016;-40
2021/12/29 01:35:01;;;;;;;5.65;2.10;;;19.10;73.70;;;;;;5101093;28;20488;-41
2021/12/29 01:37:26;;;;;;;5.07;2.17;;;19.10;73.70;;;;;;5091909;28;20020;-37
2021/12/29 01:39:52;;;;;;;7.60;2.38;;;19.10;73.70;;;;;;5095330;28;20977;-34
2021/12/29 01:42:18;;;;;;;5.43;2.60;;;19.10;73.80;;;;;;5072315;28;20052;-39
2021/12/29 01:44:43;;;;;;;4.63;2.13;;;19.10;73.90;;;;;;5084709;28;20023;-37
2021/12/29 01:47:09;;;;;;;6.18;2.30;;;19.00;73.90;;;;;;5097487;28;20012;-40
2021/12/29 01:49:35;;;;;;;6.07;2.67;;;19.00;74.00;;;;;;5092924;28;20020;-36
2021/12/29 01:52:04;;;;;;;4.78;2.70;;;19.00;74.00;;;;;;5092306;28;20540;-41
2021/12/29 01:54:34;;;;;;;6.47;2.38;;;18.90;74.10;;;;;;5091647;28;20104;-41
2021/12/29 01:57:01;;;;;;;5.05;1.80;;;18.90;74.10;;;;;;5102369;28;20055;-38
2021/12/29 01:59:28;;;;;;;5.47;2.60;;;18.90;74.20;;;;;;5108907;28;20111;-38
2021/12/29 02:01:54;;;;;;;5.47;1.88;;;18.90;74.10;;;;;;5098914;28;20032;-39
2021/12/29 02:04:20;;;;;;;5.07;2.13;;;18.90;74.30;;;;;;5110291;28;20389;-35
2021/12/29 02:06:47;;;;;;;6.90;2.42;;;18.90;74.40;;;;;;5096697;28;20016;-40
2021/12/29 02:09:13;;;;;;;5.68;1.80;;;18.80;74.40;;;;;;5110456;28;20024;-42
2021/12/29 02:11:42;;;;;;;4.80;1.70;;;18.80;74.50;;;;;;5091496;28;20502;-41
2021/12/29 02:14:09;;;;;;;5.60;2.03;;;18.80;74.60;;;;;;5110158;28;20701;-42
2021/12/29 02:16:35;;;;;;;5.03;1.77;;;18.70;74.70;;;;;;5097945;28;20016;-40
2021/12/29 02:19:04;;;;;;;4.15;1.90;;;18.70;74.70;;;;;;5109556;28;20028;-41
2021/12/29 02:21:32;;;;;;;4.75;1.75;;;18.70;74.90;;;;;;5099793;28;20036;-39
2021/12/29 02:26:27;;;;;;;5.80;1.98;;;18.60;74.90;;;;;;5097069;28;20698;-41
2021/12/29 02:28:55;;;;;;;5.97;1.70;;;18.70;74.90;;;;;;5093604;27;20096;-40
2021/12/29 02:31:22;;;;;;;5.70;2.45;;;18.60;75.00;;;;;;5093294;28;20473;-41
2021/12/29 02:33:48;;;;;;;5.38;2.20;;;18.60;75.00;;;;;;5101842;28;20024;-42
2021/12/29 02:36:16;;;;;;;5.03;2.20;;;18.60;74.90;;;;;;5107799;28;20024;-41
2021/12/29 02:38:47;;;;;;;4.32;1.75;;;18.50;75.00;;;;;;5097707;28;20404;-40
2021/12/29 02:41:13;;;;;;;5.35;2.20;;;18.60;75.10;;;;;;5089616;28;20489;-42
2021/12/29 02:43:40;;;;;;;6.63;2.40;;;18.50;75.10;;;;;;5098576;28;20031;-41
2021/12/29 02:46:12;;;;;;;4.68;2.10;;;18.50;75.00;;;;;;5104988;28;20016;-40
2021/12/29 02:48:56;;;;;;;7.90;2.55;;;18.50;75.00;;;;;;5099221;28;20316;-41
2021/12/29 02:51:22;;;;;;;5.80;2.30;;;18.50;75.00;;;;;;5093010;28;20096;-39
2021/12/29 02:53:48;;;;;;;5.90;2.60;;;18.50;74.90;;;;;;5089508;28;20436;-40
2021/12/29 02:56:14;;;;;;;5.45;2.05;;;18.50;75.00;;;;;;5107553;28;20117;-40
2021/12/29 02:58:39;;;;;;;5.00;1.98;;;18.50;75.00;;;;;;5099629;28;20016;-40
2021/12/29 03:01:08;;;;;;;4.60;1.85;;;18.50;75.10;;;;;;5088836;28;20035;-40
2021/12/29 03:03:37;;;;;;;4.93;1.63;;;18.50;75.10;;;;;;5104355;28;20164;-41
2021/12/29 03:06:04;;;;;;;5.35;1.90;;;18.50;75.10;;;;;;5078437;28;20486;-41
2021/12/29 03:08:30;;;;;;;5.90;1.98;;;18.40;75.00;;;;;;5092396;28;20072;-42
2021/12/29 03:10:56;;;;;;;4.85;1.92;;;18.40;75.00;;;;;;5108633;28;20049;-41
2021/12/29 03:13:24;;;;;;;5.82;1.90;;;18.50;75.10;;;;;;5096550;28;20350;-41
2021/12/29 03:15:50;;;;;;;4.00;1.80;;;18.40;75.10;;;;;;5107173;28;20028;-41
2021/12/29 03:18:16;;;;;;;3.95;1.85;;;18.40;75.10;;;;;;5098987;28;20028;-35
2021/12/29 03:20:42;;;;;;;4.28;2.13;;;18.40;75.10;;;;;;5076757;28;20496;-40
2021/12/29 03:23:08;;;;;;;6.43;1.77;;;18.40;75.10;;;;;;5082716;28;20341;-38
2021/12/29 03:25:33;;;;;;;6.68;3.22;;;18.40;75.10;;;;;;5102324;28;20492;-40
2021/12/29 03:28:00;;;;;;;5.55;1.98;;;18.40;75.10;;;;;;5086976;28;20151;-35
2021/12/29 03:30:28;;;;;;;4.50;1.95;;;18.30;75.10;;;;;;5099499;28;20031;-39
2021/12/29 03:33:03;;;;;;;3.65;1.70;;;18.30;75.10;;;;;;5091531;28;20123;-41
2021/12/29 03:35:33;;;;;;;5.80;2.08;;;18.30;75.10;;;;;;5097407;28;20031;-42
2021/12/29 03:38:01;;;;;;;4.25;1.63;;;18.30;75.20;;;;;;5089102;28;20089;-40
2021/12/29 03:40:27;;;;;;;4.10;1.50;;;18.30;75.30;;;;;;5099072;28;20012;-41
2021/12/29 03:42:53;;;;;;;5.45;1.80;;;18.30;75.20;;;;;;5088123;28;20047;-41
2021/12/29 03:45:19;;;;;;;5.35;1.80;;;18.30;75.10;;;;;;5096629;28;20111;-41
2021/12/29 03:47:45;;;;;;;3.38;1.63;;;18.30;75.10;;;;;;5089179;28;20124;-38
2021/12/29 03:50:11;;;;;;;3.60;1.83;;;18.30;75.10;;;;;;5095803;28;20121;-39
2021/12/29 03:52:36;;;;;;;3.42;1.40;;;18.30;75.30;;;;;;5100693;28;20462;-41
2021/12/29 03:55:03;;;;;;;3.95;1.70;;;18.20;75.10;;;;;;5099296;28;20051;-40
2021/12/29 03:57:28;;;;;;;4.78;2.13;;;18.30;75.20;;;;;;5087040;28;20036;-38
2021/12/29 03:59:54;;;;;;;5.40;1.75;;;18.30;75.10;;;;;;5097592;28;20100;-42
2021/12/29 04:02:19;;;;;;;5.32;2.10;;;18.20;75.10;;;;;;5087649;28;20048;-37
2021/12/29 04:04:47;;;;;;;6.72;2.00;;;18.20;75.10;;;;;;5088089;28;20020;-39
2021/12/29 04:07:13;;;;;;;3.70;1.80;;;18.20;75.20;;;;;;5103466;28;20069;-40
2021/12/29 04:09:39;;;;;;;3.78;1.67;;;18.20;75.20;;;;;;5104625;28;20468;-41
2021/12/29 04:12:05;;;;;;;3.70;1.58;;;18.20;75.10;;;;;;5091001;28;20628;-37
2021/12/29 04:14:31;;;;;;;3.20;1.50;;;18.20;75.20;;;;;;5095032;28;20028;-42
2021/12/29 04:16:57;;;;;;;3.45;1.48;;;18.20;75.30;;;;;;5103127;28;20080;-41
2021/12/29 04:19:39;;;;;;;4.05;1.92;;;18.20;75.30;;;;;;5078173;28;20355;-38
2021/12/29 04:22:07;;;;;;;4.40;1.63;;;18.20;75.30;;;;;;5092793;28;20082;-39
2021/12/29 04:24:33;;;;;;;4.53;1.85;;;18.20;75.40;;;;;;5109682;28;20827;-34
2021/12/29 04:27:00;;;;;;;5.07;1.80;;;18.10;75.40;;;;;;5098563;28;20111;-41
2021/12/29 04:29:25;;;;;;;5.07;1.80;;;18.10;75.30;;;;;;5073924;28;20445;-39
2021/12/29 04:31:51;;;;;;;3.40;1.35;;;18.10;75.20;;;;;;5102070;28;20085;-39
2021/12/29 04:34:16;;;;;;;3.47;1.65;;;18.10;75.20;;;;;;5090774;28;20028;-37
2021/12/29 04:36:42;;;;;;;4.20;1.45;;;18.10;75.30;;;;;;5102814;28;20023;-41
2021/12/29 04:39:08;;;;;;;4.25;1.60;;;18.10;75.30;;;;;;5090746;28;20074;-40
2021/12/29 04:41:34;;;;;;;3.80;1.50;;;18.10;75.20;;;;;;5102625;28;20045;-41
2021/12/29 04:44:00;;;;;;;3.42;1.58;;;18.10;75.30;;;;;;5072003;28;20025;-40
2021/12/29 04:46:38;;;;;;;4.65;1.92;;;18.10;75.30;;;;;;5096048;28;20047;-35
2021/12/29 04:49:10;;;;;;;4.30;1.45;;;18.10;75.40;;;;;;5069977;28;20036;-33
2021/12/29 04:51:43;;;;;;;3.95;1.88;;;18.10;75.40;;;;;;5095967;28;20066;-41
2021/12/29 04:54:09;;;;;;;4.07;1.45;;;18.10;75.20;;;;;;5090823;28;20028;-34
2021/12/29 04:56:35;;;;;;;3.35;1.65;;;18.10;75.30;;;;;;5096967;28;20154;-37
2021/12/29 04:59:01;;;;;;;2.85;1.30;;;18.10;75.30;;;;;;5107130;28;20366;-41
2021/12/29 05:01:27;;;;;;;4.65;2.17;;;18.10;75.30;;;;;;5103650;28;20198;-36
2021/12/29 05:03:54;;;;;;;2.78;1.27;;;18.10;75.30;;;;;;5100096;28;20028;-41
2021/12/29 05:08:24;;;;;;;4.25;1.60;;;18.00;75.30;;;;;;5080417;28;20036;-39
2021/12/29 05:09:05;;;;;;;3.03;1.40;;;18.00;75.40;;;;;;5099819;28;20119;-37
2021/12/29 05:11:31;;;;;;;5.10;1.30;;;18.00;75.50;;;;;;5098684;28;20122;-36
2021/12/29 05:13:56;;;;;;;4.13;1.83;;;18.00;75.70;;;;;;5098617;28;20579;-41
2021/12/29 05:16:27;;;;;;;4.60;1.27;;;18.00;75.80;;;;;;5077249;28;20023;-40
2021/12/29 05:18:53;;;;;;;5.90;1.40;;;18.00;75.90;;;;;;5089924;28;20563;-41
2021/12/29 05:21:19;;;;;;;5.05;2.15;;;18.00;75.90;;;;;;5074970;28;20229;-38
2021/12/29 05:23:44;;;;;;;4.45;1.42;;;18.00;75.80;;;;;;5100754;28;20108;-36
2021/12/29 05:26:10;;;;;;;3.67;1.65;;;18.00;75.90;;;;;;5090998;28;20119;-39
2021/12/29 05:28:36;;;;;;;3.20;1.30;;;18.00;76.00;;;;;;5101402;28;20024;-41
2021/12/29 05:31:03;;;;;;;3.97;1.40;;;18.00;75.90;;;;;;5090003;28;20024;-39
2021/12/29 05:33:28;;;;;;;4.32;1.50;;;18.00;76.10;;;;;;5103192;28;20032;-41
2021/12/29 05:35:54;;;;;;;3.90;1.50;;;18.00;76.00;;;;;;5090280;28;20038;-41
2021/12/29 05:38:47;;;;;;;4.35;1.50;;;17.90;75.90;;;;;;5095391;28;20105;-41
2021/12/29 05:41:16;;;;;;;5.57;1.80;;;18.00;75.80;;;;;;5059604;28;20409;-40
2021/12/29 05:43:42;;;;;;;3.95;1.48;;;17.90;75.80;;;;;;5100738;28;20469;-35
2021/12/29 05:46:09;;;;;;;4.80;1.70;;;18.00;75.70;;;;;;5089995;28;20030;-38
2021/12/29 05:48:35;;;;;;;6.03;1.30;;;17.90;76.00;;;;;;5101460;28;20068;-40
2021/12/29 05:51:02;;;;;;;6.38;2.38;;;17.80;76.40;;;;;;5090700;28;20032;-42
2021/12/29 05:53:27;;;;;;;7.63;2.03;;;17.80;76.20;;;;;;5090314;28;20530;-40
2021/12/29 05:55:53;;;;;;;7.43;1.80;;;17.80;75.70;;;;;;5091323;28;20139;-39
2021/12/29 05:58:19;;;;;;;5.28;2.10;;;17.80;75.40;;;;;;5079593;28;20390;-36
2021/12/29 06:00:44;;;;;;;9.50;2.17;;;17.80;76.00;;;;;;5101373;28;20384;-40
2021/12/29 06:03:10;;;;;;;5.60;1.25;;;17.80;76.30;;;;;;5088103;28;20047;-37
2021/12/29 06:05:37;;;;;;;5.38;1.75;;;17.80;76.60;;;;;;5091565;28;20016;-38
2021/12/29 06:08:04;;;;;;;4.70;1.40;;;17.80;76.70;;;;;;5101427;28;20081;-41
2021/12/29 06:10:30;;;;;;;4.47;2.03;;;17.80;76.80;;;;;;5087057;28;20020;-39
2021/12/29 06:12:56;;;;;;;5.47;1.50;;;17.80;77.20;;;;;;5107194;28;20077;-37
2021/12/29 06:15:21;;;;;;;4.43;1.45;;;17.80;77.30;;;;;;5097525;28;20119;-39
2021/12/29 06:17:47;;;;;;;5.68;1.52;;;17.80;77.60;;;;;;5109377;28;20030;-37
2021/12/29 06:20:13;;;;;;;10.60;1.80;;;17.80;77.50;;;;;;5095963;28;20028;-38
2021/12/29 06:22:40;;;;;;;5.75;1.90;;;17.80;77.80;;;;;;5109351;28;20378;-38
2021/12/29 06:25:09;;;;;;;8.75;2.33;;;17.80;77.80;;;;;;5096039;28;20173;-38
2021/12/29 06:27:34;;;;;;;6.95;1.95;;;17.70;77.90;;;;;;5108291;28;20028;-36
2021/12/29 06:30:00;;;;;;;3.80;1.27;;;17.80;78.70;;;;;;5096265;28;20047;-39
2021/12/29 06:32:26;;;;;;;6.15;1.65;;;17.80;77.90;;;;;;5107682;28;20083;-38
2021/12/29 06:34:52;;;;;;;6.05;1.48;;;17.70;78.10;;;;;;5104679;28;20027;-40
2021/12/29 06:37:18;;;;;;;3.63;1.60;;;17.70;78.30;;;;;;5092514;28;20032;-37
2021/12/29 06:39:45;;;;;;;5.22;1.40;;;17.70;78.40;;;;;;5095876;28;20492;-36
2021/12/29 06:42:11;;;;;;;7.72;1.58;;;17.70;78.60;;;;;;5095422;27;20067;-40
2021/12/29 06:44:37;;;;;;;4.68;1.63;;;17.70;78.60;;;;;;5088933;28;20035;-35
2021/12/29 06:47:03;;;;;;;7.35;1.63;;;17.70;78.40;;;;;;5092651;28;20393;-39
2021/12/29 06:49:29;;;;;;;5.93;1.38;;;17.70;78.30;;;;;;5101140;27;20391;-39
2021/12/29 06:51:55;;;;;;;4.47;1.40;;;17.70;78.50;;;;;;5099638;28;20036;-34
2021/12/29 06:54:21;;;;;;;3.88;1.25;;;17.70;78.50;;;;;;5090363;28;20020;-37
2021/12/29 06:56:46;;;;;;;4.30;1.30;;;17.70;78.70;;;;;;5099828;28;20071;-38
2021/12/29 06:59:12;;;;;;;3.45;1.33;;;17.60;78.70;;;;;;5088795;28;20116;-35
2021/12/29 07:01:37;;;;;;;3.13;1.25;;;17.70;78.40;;;;;;5100695;28;20500;-39
2021/12/29 07:04:03;;;;;;;5.22;1.63;;;17.60;78.70;;;;;;5088149;28;20024;-40
2021/12/29 07:06:29;;;;;;;5.57;1.55;;;17.70;78.50;;;;;;5099530;28;20019;-37
2021/12/29 07:08:55;;;;;;;5.18;1.25;;;17.70;78.60;;;;;;5087866;28;20114;-39
2021/12/29 07:11:20;;;;;;;4.32;1.45;;;17.70;78.80;;;;;;5099720;28;20042;-40
2021/12/29 07:13:46;;;;;;;4.78;1.30;;;17.60;78.60;;;;;;5089945;28;20440;-38
2021/12/29 07:16:12;;;;;;;3.10;0.90;;;17.60;78.80;;;;;;5088675;28;20053;-34
2021/12/29 07:18:37;;;;;;;3.13;1.20;;;17.70;78.60;;;;;;5103165;28;20044;-40
2021/12/29 07:21:04;;;;;;;7.47;1.85;;;17.60;78.70;;;;;;5102095;28;20147;-37
2021/12/29 07:23:29;;;;;;;4.85;1.60;;;17.70;78.80;;;;;;5102085;28;20525;-40
2021/12/29 07:25:55;;;;;;;3.97;1.33;;;17.70;78.80;;;;;;5104396;28;20042;-35
2021/12/29 07:28:21;;;;;;;4.80;1.80;;;17.70;78.80;;;;;;5099668;28;20016;-39
2021/12/29 07:30:51;;;;;;;5.07;1.27;;;17.60;78.90;;;;;;5105924;28;20107;-36
2021/12/29 07:33:17;;;;;;;3.75;1.05;;;17.60;78.90;;;;;;5083255;28;20107;-39
2021/12/29 07:35:43;;;;;;;4.57;1.38;;;17.60;79.00;;;;;;5089906;28;21014;-41
2021/12/29 07:38:08;;;;;;;5.90;1.52;;;17.60;79.00;;;;;;5099440;28;20024;-36
2021/12/29 07:40:34;;;;;;;3.83;1.13;;;17.60;78.90;;;;;;5088079;28;20028;-40
2021/12/29 07:43:02;;;;;;;4.28;1.10;;;17.60;78.90;;;;;;5099308;28;20040;-38
2021/12/29 07:45:28;;;;;;;4.45;1.50;;;17.60;78.90;;;;;;5085977;28;20040;-37
2021/12/29 07:47:54;;;;;;;5.32;1.52;;;17.50;79.20;;;;;;5085361;28;20032;-41
2021/12/29 07:50:21;;;;;;;3.60;1.40;;;17.60;79.00;;;;;;5076497;28;20021;-38
2021/12/29 07:52:48;;;;;;;8.23;1.50;;;17.50;78.90;;;;;;5088448;28;20162;-40
2021/12/29 07:55:18;;;;;;;5.20;1.20;;;17.60;79.30;;;;;;5083492;28;20023;-41
2021/12/29 07:57:43;;;;;;;5.63;1.88;;;17.60;79.10;;;;;;5090809;28;20450;-37
2021/12/29 08:00:10;;;;;;;4.22;1.10;;;17.40;79.20;;;;;;5083428;28;20028;-35
2021/12/29 08:02:36;;;;;;;4.93;1.13;;;17.40;79.60;;;;;;5084013;28;20088;-37
2021/12/29 08:05:05;;;;;;;3.45;1.23;;;17.60;78.60;;;;;;5081080;28;20063;-39
2021/12/29 08:07:31;;;;;;;6.18;1.60;;;17.50;79.00;;;;;;5086109;28;20405;-36
2021/12/29 08:09:56;;;;;;;5.53;1.10;;;17.40;79.60;;;;;;5094671;28;20047;-37
2021/12/29 08:12:22;;;;;;;3.95;1.48;;;17.30;79.90;;;;;;5105430;28;20023;-36
2021/12/29 08:14:49;;;;;;;3.78;1.00;;;17.50;79.50;;;;;;5098740;28;20024;-36
2021/12/29 08:17:15;;;;;;;3.95;1.40;;;17.60;79.20;;;;;;5106547;28;20020;-40
2021/12/29 08:19:41;;;;;;;3.53;1.23;;;17.60;78.90;;;;;;5098275;28;20469;-36
2021/12/29 08:22:07;;;;;;;5.90;1.25;;;17.40;79.70;;;;;;5093940;28;20028;-38
2021/12/29 08:24:32;;;;;;;5.03;1.38;;;17.50;80.30;;;;;;5096418;28;20035;-41
2021/12/29 08:26:58;;;;;;;3.78;0.82;;;17.40;80.30;;;;;;5076096;28;20028;-41
2021/12/29 08:29:24;;;;;;;6.22;1.55;;;17.50;80.40;;;;;;5089236;28;20024;-41
2021/12/29 08:31:49;;;;;;;7.47;1.40;;;17.60;80.20;;;;;;5086204;28;20024;-41
2021/12/29 08:34:15;;;;;;;5.47;1.33;;;17.80;79.30;;;;;;5084586;28;20343;-39
2021/12/29 08:36:42;;;;;;;4.55;1.13;;;17.80;78.90;;;;;;5079392;28;20030;-39
2021/12/29 08:39:09;;;;;;;3.53;1.38;;;18.00;78.60;;;;;;5081306;28;20043;-43
2021/12/29 08:41:36;;;;;;;6.90;1.48;;;18.00;78.40;;;;;;5083611;28;20047;-43
2021/12/29 08:44:02;;;;;;;8.98;1.60;;;18.00;78.90;;;;;;5085062;28;20024;-38
2021/12/29 08:46:28;;;;;;;4.07;1.40;;;18.00;79.00;;;;;;5085994;28;20029;-42
2021/12/29 08:48:55;;;;;;;5.93;1.90;;;18.10;78.90;;;;;;5081283;28;20082;-39
2021/12/29 08:51:21;;;;;;;5.22;1.58;;;18.10;78.40;;;;;;5102175;28;20020;-42
2021/12/29 08:53:47;;;;;;;7.90;1.35;;;18.10;78.70;;;;;;5106362;28;20464;-41
2021/12/29 08:56:16;;;;;;;3.05;1.55;;;18.20;78.50;;;;;;5103214;28;20120;-38
2021/12/29 08:58:43;;;;;;;4.90;1.25;;;18.10;78.50;;;;;;5093298;27;20443;-39
2021/12/29 09:01:09;;;;;;;8.98;1.83;;;18.00;78.90;;;;;;5095998;28;20035;-37
2021/12/29 09:03:35;;;;;;;9.40;1.42;;;17.90;79.40;;;;;;5086605;28;20036;-39
2021/12/29 09:06:00;;;;;;;6.00;1.55;;;17.90;79.50;;;;;;5101994;28;20031;-41
2021/12/29 09:08:26;;;;;;;8.98;1.75;;;17.90;80.10;;;;;;5090656;28;20328;-39
2021/12/29 09:10:53;;;;;;;5.00;1.55;;;17.90;79.80;;;;;;5096113;28;20016;-41
2021/12/29 09:13:19;;;;;;;5.80;1.40;;;18.00;79.80;;;;;;5112631;28;20115;-39
2021/12/29 09:15:45;;;;;;;7.57;1.48;;;18.00;79.70;;;;;;5109822;28;20016;-42
2021/12/29 09:18:10;;;;;;;6.10;2.40;;;17.90;80.00;;;;;;5090340;28;20035;-41
2021/12/29 09:20:43;;;;;;;7.30;1.75;;;17.80;80.50;;;;;;5098153;28;20012;-40
2021/12/29 09:23:09;;;;;;;4.68;1.60;;;17.90;80.80;;;;;;5093634;28;20059;-40
2021/12/29 09:25:37;;;;;;;5.03;1.38;;;18.00;80.10;;;;;;5099349;28;20392;-39
2021/12/29 09:28:03;;;;;;;9.38;1.35;;;18.00;79.50;;;;;;5087881;27;20107;-42
2021/12/29 09:30:30;;;;;;;4.85;1.42;;;18.00;79.50;;;;;;5097615;28;20053;-39
2021/12/29 09:32:56;;;;;;;6.72;1.95;;;18.00;79.20;;;;;;5090873;28;20047;-39
2021/12/29 09:35:23;;;;;;;4.25;1.60;;;18.00;79.90;;;;;;5079145;28;20024;-42
2021/12/29 09:37:50;;;;;;;3.75;1.30;;;17.90;79.60;;;;;;5086443;28;20138;-40
2021/12/29 09:40:20;;;;;;;6.70;1.80;;;17.90;79.70;;;;;;5080845;28;20473;-41
2021/12/29 09:42:59;;;;;;;6.10;1.60;;;17.90;79.90;;;;;;5077646;28;20440;-41
2021/12/29 09:45:25;;;;;;;9.05;1.95;;;17.80;79.90;;;;;;5078927;28;20036;-41
2021/12/29 09:47:51;;;;;;;8.68;1.60;;;17.90;79.70;;;;;;5075302;28;20331;-40
2021/12/29 09:50:20;;;;;;;4.25;1.40;;;17.90;79.50;;;;;;5073892;28;20022;-37
2021/12/29 09:52:47;;;;;;;6.18;1.48;;;18.00;79.20;;;;;;5074090;28;20489;-40
2021/12/29 09:55:16;;;;;;;4.30;1.45;;;18.00;79.20;;;;;;5078438;28;20653;-40
2021/12/29 09:57:45;;;;;;;6.45;2.03;;;18.00;79.00;;;;;;5076045;28;20464;-37
2021/12/29 10:00:22;;;;;;;6.20;1.75;;;18.00;79.30;;;;;;5075135;28;20020;-39
2021/12/29 10:02:48;;;;;;;4.70;1.20;;;18.00;78.70;;;;;;5076477;28;20465;-37
2021/12/29 10:05:14;;;;;;;4.13;1.60;;;17.90;79.10;;;;;;5071240;28;20028;-41
2021/12/29 10:07:39;;;;;;;4.50;1.60;;;18.00;78.90;;;;;;5082019;28;20021;-40
2021/12/29 10:10:19;;;;;;;3.78;1.48;;;17.90;78.70;;;;;;5069659;28;20021;-40
2021/12/29 10:12:47;;;;;;;4.07;1.42;;;17.90;78.90;;;;;;5084810;28;20024;-38
2021/12/29 10:15:13;;;;;;;5.22;1.65;;;17.90;78.70;;;;;;5087834;28;20619;-40
2021/12/29 10:17:39;;;;;;;4.20;1.52;;;18.00;78.60;;;;;;5084140;28;20119;-42
2021/12/29 10:20:12;;;;;;;4.13;1.63;;;18.00;78.70;;;;;;5075932;28;20111;-37
2021/12/29 10:22:39;;;;;;;3.85;1.63;;;18.00;78.60;;;;;;5076455;28;20123;-42
2021/12/29 10:25:26;;;;;;;5.45;1.42;;;18.00;79.00;;;;;;5074159;28;20094;-41
2021/12/29 10:27:53;;;;;;;4.93;1.52;;;18.00;78.40;;;;;;5072656;28;20031;-42
2021/12/29 10:30:28;;;;;;;3.65;1.58;;;18.00;78.30;;;;;;5072184;28;20169;-41
2021/12/29 10:33:09;;;;;;;7.03;1.75;;;17.90;78.30;;;;;;5075021;28;20062;-40
2021/12/29 10:35:37;;;;;;;4.45;1.48;;;17.90;78.40;;;;;;5074536;28;20051;-42
2021/12/29 10:38:25;;;;;;;4.53;2.00;;;17.90;78.40;;;;;;5076609;28;20020;-37
2021/12/29 10:40:51;;;;;;;3.67;1.27;;;17.90;78.30;;;;;;5075975;28;20467;-41
2021/12/29 10:43:17;;;;;;;3.53;1.30;;;17.90;78.20;;;;;;5076913;28;20021;-41
2021/12/29 10:45:52;;;;;;;4.38;1.52;;;17.90;78.20;;;;;;5076706;28;20467;-39
2021/12/29 10:48:21;;;;;;;6.38;1.88;;;17.90;78.20;;;;;;5075922;28;20048;-38
2021/12/29 10:51:08;;;;;;;4.25;1.70;;;17.90;78.20;;;;;;5078724;28;22666;-36
2021/12/29 10:53:38;;;;;;;5.60;1.60;;;17.90;78.20;;;;;;5078133;28;20039;-37
2021/12/29 10:56:05;;;;;;;5.10;1.95;;;17.90;78.30;;;;;;5074368;28;20123;-39
2021/12/29 10:58:35;;;;;;;4.45;1.50;;;17.80;78.20;;;;;;5077940;28;20126;-40
2021/12/29 11:01:12;;;;;;;5.22;2.10;;;17.80;78.20;;;;;;5072144;28;20055;-41
2021/12/29 11:03:55;;;;;;;4.32;1.73;;;17.90;78.10;;;;;;5077436;28;20107;-39
2021/12/29 11:06:24;;;;;;;3.63;1.48;;;17.90;78.10;;;;;;5076023;28;20020;-42
2021/12/29 11:08:58;;;;;;;5.07;1.80;;;17.80;78.10;;;;;;5075765;28;20090;-41
2021/12/29 11:11:44;;;;;;;3.67;1.60;;;17.80;78.10;;;;;;5074729;28;20066;-39
2021/12/29 11:14:17;;;;;;;6.32;1.70;;;17.80;78.00;;;;;;5075113;28;20317;-32
2021/12/29 11:16:45;;;;;;;6.30;1.77;;;17.80;78.00;;;;;;5073175;28;20059;-39
2021/12/29 11:19:12;;;;;;;3.78;1.42;;;17.80;77.90;;;;;;5075140;28;20031;-38
2021/12/29 11:21:40;;;;;;;3.90;1.65;;;17.80;77.90;;;;;;5074157;28;20084;-37
2021/12/29 11:24:25;;;;;;;7.18;1.92;;;17.80;77.90;;;;;;5071369;28;20440;-37
2021/12/29 11:26:54;;;;;;;3.15;1.80;;;17.80;77.90;;;;;;5072536;28;20044;-42
2021/12/29 11:29:22;;;;;;;2.70;1.58;;;17.80;78.00;;;;;;5070916;28;20048;-40
2021/12/29 11:32:01;;;;;;;4.35;1.83;;;17.80;78.00;;;;;;5073546;28;20024;-40
2021/12/29 11:34:28;;;;;;;5.88;2.33;;;17.80;78.00;;;;;;5072071;28;20081;-42
2021/12/29 11:37:13;;;;;;;4.03;1.90;;;17.80;78.00;;;;;;5076391;28;20536;-38
2021/12/29 11:39:45;;;;;;;5.57;1.98;;;17.80;78.00;;;;;;5072230;28;20088;-40
2021/12/29 11:42:11;;;;;;;4.32;1.63;;;17.80;77.90;;;;;;5070827;28;20497;-36
2021/12/29 11:44:37;;;;;;;4.72;1.83;;;17.80;77.80;;;;;;5073304;28;20105;-40
2021/12/29 11:47:05;;;;;;;3.50;1.70;;;17.80;77.80;;;;;;5074745;28;20478;-40
2021/12/29 11:49:31;;;;;;;3.15;1.60;;;17.80;77.80;;;;;;5073429;28;20048;-38
2021/12/29 11:52:17;;;;;;;4.15;1.85;;;17.80;77.80;;;;;;5072223;28;20048;-41
2021/12/29 11:55:13;;;;;;;5.07;1.88;;;17.80;77.80;;;;;;5074160;28;20024;-41
2021/12/29 11:57:40;;;;;;;4.38;1.88;;;17.80;78.30;;;;;;5073118;28;20044;-38
2021/12/29 12:00:18;;;;;;;6.15;2.20;;;17.80;78.60;;;;;;5073755;28;20035;-40
2021/12/29 12:02:50;;;;;;;5.80;2.05;;;17.80;79.20;;;;;;5073777;28;20035;-41
2021/12/29 12:05:19;;;;;;;5.95;1.77;;;17.80;78.60;;;;;;5073273;28;20304;-41
2021/12/29 12:07:45;;;;;;;4.75;2.00;;;17.80;78.60;;;;;;5074287;28;20024;-41
2021/12/29 12:10:24;;;;;;;5.68;2.00;;;17.80;78.70;;;;;;5071860;28;20020;-41
2021/12/29 12:12:53;;;;;;;5.93;1.95;;;17.60;79.30;;;;;;5070125;28;20104;-39
2021/12/29 12:15:33;;;;;;;5.70;2.25;;;17.70;79.50;;;;;;5072770;28;20055;-37
2021/12/29 12:18:06;;;;;;;8.43;2.45;;;17.80;79.40;;;;;;5074032;28;20108;-37
2021/12/29 12:20:42;;;;;;;7.43;3.47;;;17.80;79.90;;;;;;5075414;28;20088;-40
2021/12/29 12:23:09;;;;;;;10.60;3.67;;;17.90;78.70;;;;;;5074482;28;21448;-39
2021/12/29 12:25:36;;;;;;;7.65;3.10;;;18.00;78.80;;;;;;5069754;28;20142;-41
2021/12/29 12:28:13;;;;;;;10.65;3.20;;;18.20;78.40;;;;;;5071743;28;20020;-38
2021/12/29 12:30:44;;;;;;;11.32;3.58;;;18.10;78.70;;;;;;5074504;28;20016;-40
2021/12/29 12:33:17;;;;;;;13.02;3.53;;;18.20;78.60;;;;;;5077832;28;20024;-41
2021/12/29 12:35:46;;;;;;;8.15;3.08;;;18.30;78.10;;;;;;5079255;28;20020;-36
2021/12/29 12:38:24;;;;;;;8.18;3.25;;;18.50;78.00;;;;;;5073973;28;20112;-42
2021/12/29 12:41:11;;;;;;;9.40;3.08;;;18.50;77.90;;;;;;5078893;28;20032;-42
2021/12/29 12:43:51;;;;;;;9.90;3.35;;;18.50;78.10;;;;;;5078246;28;20039;-42
2021/12/29 12:46:31;;;;;;;5.75;2.65;;;18.50;77.90;;;;;;5079385;28;20016;-41
2021/12/29 12:48:57;;;;;;;7.95;2.65;;;18.50;77.60;;;;;;5078729;28;20021;-42
2021/12/29 12:51:23;;;;;;;10.43;3.28;;;18.50;77.60;;;;;;5088883;28;20023;-41
2021/12/29 12:53:49;;;;;;;10.25;2.70;;;18.50;77.40;;;;;;5099479;28;20020;-38
2021/12/29 12:56:18;;;;;;;7.40;2.50;;;18.60;77.60;;;;;;5108597;28;20539;-40
2021/12/29 12:58:50;;;;;;;7.88;2.75;;;18.70;77.50;;;;;;5098256;28;20024;-39
2021/12/29 13:01:21;;;;;;;6.93;2.60;;;18.70;77.10;;;;;;5089732;28;20020;-41
2021/12/29 13:03:46;;;;;;;7.03;2.47;;;18.80;77.00;;;;;;5098543;28;20031;-42
2021/12/29 13:06:22;;;;;;;8.32;2.63;;;18.80;76.80;;;;;;5111517;28;20028;-42